Weather History for KMWM - August, 2013

Change the Weather History Date:

Friday, August 23, 2013

  Actual Average Record
Temperature  
Mean Temperature 70 °F -  
Max Temperature 82 °F 80 °F 96 °F (1948)
Min Temperature 59 °F 58 °F 41 °F (1987)
Cooling Degree Days 6    
Growing Degree Days 20 (Base 50)    
Moisture  
Dew Point 65 °F    
Average Humidity 79    
Maximum Humidity 94    
Minimum Humidity 58    
Precipitation  
Precipitation 0.00 in - - ()
Sea Level Pressure  
Sea Level Pressure 30.09 in    
Wind  
Wind Speed 5 mph (SE)    
Max Wind Speed 15 mph    
Max Gust Speed 20 mph    
Visibility 10 miles    
Events      
Averages and records for this station are not official NWS values.
T = Trace of Precipitation, MM = Missing Value Source: NWS Daily Summary

Daily Weather History Graph

Daily Weather History Graph

Search for Another Location

Airport or City:

Trip Planner

Search our weather history database for the weather conditions in past years. The results will help you decide how hot, cold, wet, or windy it might be!

Date:

Astronomy

Aug. 23, 2013 Rise Set
Actual Time 6:33 AM CDT 8:11 PM CDT
Civil Twilight 6:03 AM CDT 8:41 PM CDT
Nautical Twilight 5:26 AM CDT 9:18 PM CDT
Astronomical Twilight 4:46 AM CDT 9:57 PM CDT
Moon 9:21 PM CDT (8/23) 9:38 AM CDT (8/23)
Length of Visible Light 14h 38m
Length of Day
13h 37m
Waning Gibbous, 91% of the Moon is Illuminated
Aug 23
Waning Gibbous
Aug 28
Last Quarter
Sep 5
New
Sep 12
First Quarter
Sep 19
Full

Hourly Weather History & Observations

Time (CDT) Temp. Heat Index Dew Point Humidity Pressure Visibility Wind Dir Wind Speed Gust Speed Precip Events Conditions
12:13 AM 62.6 °F - 60.8 °F 94% 30.15 in 10.0 mi Calm Calm - N/A   Clear
12:32 AM 60.8 °F - 57.2 °F 88% 30.14 in 10.0 mi NNE 6.9 mph - N/A   Clear
12:52 AM 64.4 °F - 57.2 °F 77% 30.14 in 10.0 mi Calm Calm - N/A   Clear
1:13 AM 64.4 °F - 59.0 °F 83% 30.13 in 10.0 mi NE 3.5 mph - N/A   Clear
1:32 AM 62.6 °F - 57.2 °F 82% 30.13 in 10.0 mi Calm Calm - N/A   Clear
1:52 AM 62.6 °F - 59.0 °F 88% 30.13 in 10.0 mi Calm Calm - N/A   Clear
2:13 AM 62.6 °F - 57.2 °F 82% 30.13 in 10.0 mi Calm Calm - N/A   Clear
2:32 AM 60.8 °F - 57.2 °F 88% 30.13 in 10.0 mi Calm Calm - N/A   Clear
2:52 AM 59.0 °F - 55.4 °F 88% 30.13 in 10.0 mi Calm Calm - N/A   Clear
3:12 AM 60.8 °F - 55.4 °F 82% 30.13 in 10.0 mi Calm Calm - N/A   Clear
3:32 AM 60.8 °F - 57.2 °F 88% 30.13 in 10.0 mi Calm Calm - N/A   Clear
3:53 AM 60.8 °F - 57.2 °F 88% 30.13 in 10.0 mi Calm Calm - N/A   Clear
4:12 AM 60.8 °F - 57.2 °F 88% 30.13 in 10.0 mi Calm Calm - N/A   Clear
4:33 AM 59.0 °F - 55.4 °F 88% 30.13 in 10.0 mi Calm Calm - N/A   Clear
4:52 AM 59.0 °F - 55.4 °F 88% 30.13 in 10.0 mi Calm Calm - N/A   Clear
5:12 AM 60.8 °F - 57.2 °F 88% 30.13 in 10.0 mi Calm Calm - N/A   Clear
5:33 AM 60.8 °F - 57.2 °F 88% 30.12 in 10.0 mi Calm Calm - N/A   Clear
5:52 AM 60.8 °F - 57.2 °F 88% 30.13 in 7.0 mi Calm Calm - N/A   Clear
6:12 AM 60.8 °F - 57.2 °F 88% 30.13 in 5.0 mi Calm Calm - N/A   Clear
6:33 AM 59.0 °F - 57.2 °F 94% 30.13 in 10.0 mi Calm Calm - N/A   Clear
6:52 AM 60.8 °F - 59.0 °F 94% 30.13 in 7.0 mi Calm Calm - N/A   Clear
7:12 AM 60.8 °F - 59.0 °F 94% 30.12 in 7.0 mi East 3.5 mph - N/A   Clear
7:33 AM 62.6 °F - 60.8 °F 94% 30.13 in 10.0 mi Calm Calm - N/A   Clear
7:52 AM 66.2 °F - 62.6 °F 88% 30.12 in 7.0 mi East 3.5 mph - N/A   Clear
8:12 AM 68.0 °F - 64.4 °F 88% 30.13 in 7.0 mi ENE 4.6 mph - N/A   Clear
8:33 AM 69.8 °F - 64.4 °F 83% 30.13 in 10.0 mi East 5.8 mph - N/A   Clear
8:52 AM 69.8 °F - 64.4 °F 83% 30.12 in 10.0 mi ESE 5.8 mph - N/A   Clear
9:12 AM 71.6 °F - 66.2 °F 83% 30.12 in 10.0 mi ESE 6.9 mph - N/A   Clear
9:33 AM 73.4 °F - 66.2 °F 78% 30.12 in 10.0 mi ESE 5.8 mph - N/A   Clear
9:52 AM 75.2 °F - 66.2 °F 73% 30.12 in 10.0 mi SE 6.9 mph - N/A   Clear
10:12 AM 75.2 °F - 66.2 °F 73% 30.12 in 10.0 mi SSE 8.1 mph - N/A   Clear
10:32 AM 75.2 °F - 66.2 °F 73% 30.12 in 10.0 mi SSE 9.2 mph - N/A   Clear
10:52 AM 77.0 °F - 66.2 °F 69% 30.12 in 10.0 mi SSE 8.1 mph - N/A   Clear
11:13 AM 77.0 °F - 68.0 °F 74% 30.12 in 10.0 mi SE 9.2 mph - N/A   Clear
11:32 AM 78.8 °F - 68.0 °F 69% 30.11 in 10.0 mi SE 10.4 mph - N/A   Clear
11:52 AM 80.6 °F 83.2 °F 68.0 °F 65% 30.10 in 10.0 mi SE 9.2 mph - N/A   Clear
12:12 PM 80.6 °F 83.2 °F 68.0 °F 65% 30.10 in 10.0 mi SE 10.4 mph - N/A   Clear
12:33 PM 82.4 °F 85.4 °F 68.0 °F 62% 30.10 in 10.0 mi SE 11.5 mph - N/A   Scattered Clouds
12:52 PM 80.6 °F 82.7 °F 66.2 °F 61% 30.09 in 10.0 mi SE 12.7 mph - N/A   Scattered Clouds
1:12 PM 82.4 °F 84.6 °F 66.2 °F 58% 30.09 in 10.0 mi SSE 13.8 mph 17.3 mph N/A   Scattered Clouds
1:33 PM 82.4 °F 85.4 °F 68.0 °F 62% 30.08 in 10.0 mi SE 12.7 mph 16.1 mph N/A   Scattered Clouds
1:52 PM 82.4 °F 85.4 °F 68.0 °F 62% 30.08 in 10.0 mi ESE 13.8 mph - N/A   Scattered Clouds
2:12 PM 82.4 °F 85.4 °F 68.0 °F 62% 30.08 in 10.0 mi SE 11.5 mph - N/A   Scattered Clouds
2:33 PM 82.4 °F 85.4 °F 68.0 °F 62% 30.07 in 10.0 mi ESE 13.8 mph 17.3 mph N/A   Mostly Cloudy
2:52 PM 82.4 °F 85.4 °F 68.0 °F 62% 30.07 in 10.0 mi SE 10.4 mph 17.3 mph N/A   Mostly Cloudy
3:12 PM 82.4 °F 86.3 °F 69.8 °F 66% 30.06 in 10.0 mi SE 9.2 mph - N/A   Mostly Cloudy
3:33 PM 82.4 °F 86.3 °F 69.8 °F 66% 30.06 in 10.0 mi SE 11.5 mph - N/A   Mostly Cloudy
3:52 PM 82.4 °F 86.3 °F 69.8 °F 66% 30.05 in 10.0 mi SE 11.5 mph 17.3 mph N/A   Scattered Clouds
4:12 PM 82.4 °F 86.3 °F 69.8 °F 66% 30.05 in 10.0 mi SE 10.4 mph - N/A   Scattered Clouds
4:33 PM 82.4 °F 87.2 °F 71.6 °F 70% 30.05 in 10.0 mi ESE 12.7 mph 17.3 mph N/A   Scattered Clouds
4:52 PM 82.4 °F 86.3 °F 69.8 °F 66% 30.04 in 10.0 mi SE 11.5 mph 19.6 mph N/A   Scattered Clouds
5:12 PM 82.4 °F 86.3 °F 69.8 °F 66% 30.05 in 10.0 mi SE 13.8 mph 18.4 mph N/A   Clear
5:33 PM 80.6 °F 83.9 °F 69.8 °F 70% 30.05 in 10.0 mi ESE 15.0 mph - N/A   Scattered Clouds
5:52 PM 80.6 °F 83.9 °F 69.8 °F 70% 30.04 in 10.0 mi SE 12.7 mph - N/A   Scattered Clouds
6:12 PM 80.6 °F 84.6 °F 71.6 °F 74% 30.04 in 10.0 mi SE 12.7 mph 16.1 mph N/A   Scattered Clouds
6:33 PM 80.6 °F 84.6 °F 71.6 °F 74% 30.04 in 10.0 mi ESE 12.7 mph 18.4 mph N/A   Clear
6:52 PM 78.8 °F - 69.8 °F 74% 30.04 in 10.0 mi SE 10.4 mph - N/A   Clear
7:12 PM 78.8 °F - 71.6 °F 78% 30.03 in 10.0 mi ESE 9.2 mph - N/A   Clear
7:33 PM 78.8 °F - 71.6 °F 78% 30.03 in 10.0 mi ESE 8.1 mph - N/A   Clear
7:52 PM 77.0 °F - 71.6 °F 83% 30.03 in 10.0 mi SE 9.2 mph - N/A   Clear
8:12 PM 75.2 °F - 69.8 °F 83% 30.03 in 10.0 mi ESE 6.9 mph - N/A   Clear
8:33 PM 75.2 °F - 69.8 °F 83% 30.03 in 10.0 mi ESE 8.1 mph - N/A   Clear
8:52 PM 75.2 °F - 69.8 °F 83% 30.04 in 10.0 mi ESE 8.1 mph - N/A   Scattered Clouds
9:12 PM 75.2 °F - 69.8 °F 83% 30.04 in 10.0 mi ESE 8.1 mph - N/A   Scattered Clouds
9:32 PM 73.4 °F - 69.8 °F 88% 30.05 in 10.0 mi ESE 8.1 mph - N/A   Scattered Clouds
9:52 PM 73.4 °F - 69.8 °F 88% 30.05 in 10.0 mi SE 8.1 mph - N/A   Clear
10:13 PM 73.4 °F - 69.8 °F 88% 30.05 in 10.0 mi SE 8.1 mph - N/A   Clear
10:32 PM 73.4 °F - 69.8 °F 88% 30.05 in 10.0 mi SE 10.4 mph - N/A   Clear
10:52 PM 73.4 °F - 69.8 °F 88% 30.05 in 10.0 mi SE 9.2 mph - N/A   Clear
11:13 PM 73.4 °F - 69.8 °F 88% 30.05 in 10.0 mi SE 9.2 mph - N/A   Clear
11:32 PM 73.4 °F - 69.8 °F 88% 30.05 in 10.0 mi SE 10.4 mph - N/A   Clear
11:52 PM 73.4 °F - 69.8 °F 88% 30.04 in 10.0 mi SE 11.5 mph - N/A   Clear